sensor_id;sensor_type;location;lat;lon;timestamp;P1;durP1;ratioP1;P2;durP2;ratioP2
13849;SDS011;6995;52.618;13.488;2024-03-02T00:02:44;60.23;;;53.23;;
13849;SDS011;6995;52.618;13.488;2024-03-02T00:05:11;66.73;;;56.47;;
13849;SDS011;6995;52.618;13.488;2024-03-02T00:07:41;64.77;;;56.20;;
13849;SDS011;6995;52.618;13.488;2024-03-02T00:10:08;67.03;;;58.67;;
13849;SDS011;6995;52.618;13.488;2024-03-02T00:12:38;71.80;;;57.90;;
13849;SDS011;6995;52.618;13.488;2024-03-02T00:15:23;67.47;;;56.80;;
13849;SDS011;6995;52.618;13.488;2024-03-02T00:18:02;80.87;;;61.33;;
13849;SDS011;6995;52.618;13.488;2024-03-02T00:20:29;77.30;;;60.37;;
13849;SDS011;6995;52.618;13.488;2024-03-02T00:23:05;66.63;;;59.30;;
13849;SDS011;6995;52.618;13.488;2024-03-02T00:25:36;67.60;;;58.07;;
13849;SDS011;6995;52.618;13.488;2024-03-02T00:28:13;75.30;;;58.37;;
13849;SDS011;6995;52.618;13.488;2024-03-02T00:33:13;72.67;;;59.77;;
13849;SDS011;6995;52.618;13.488;2024-03-02T00:35:39;67.90;;;60.50;;
13849;SDS011;6995;52.618;13.488;2024-03-02T00:38:08;67.50;;;55.17;;
13849;SDS011;6995;52.618;13.488;2024-03-02T00:40:33;67.60;;;57.13;;
13849;SDS011;6995;52.618;13.488;2024-03-02T00:42:59;65.30;;;54.93;;
13849;SDS011;6995;52.618;13.488;2024-03-02T00:45:26;65.87;;;57.00;;
13849;SDS011;6995;52.618;13.488;2024-03-02T00:47:53;67.43;;;58.03;;
13849;SDS011;6995;52.618;13.488;2024-03-02T00:50:18;65.03;;;56.67;;
13849;SDS011;6995;52.618;13.488;2024-03-02T00:52:44;61.33;;;54.77;;
13849;SDS011;6995;52.618;13.488;2024-03-02T00:55:13;67.07;;;55.90;;
13849;SDS011;6995;52.618;13.488;2024-03-02T00:57:39;69.27;;;53.77;;
13849;SDS011;6995;52.618;13.488;2024-03-02T01:00:05;62.47;;;55.77;;
13849;SDS011;6995;52.618;13.488;2024-03-02T01:02:34;59.77;;;53.37;;
13849;SDS011;6995;52.618;13.488;2024-03-02T01:05:00;66.30;;;53.80;;
13849;SDS011;6995;52.618;13.488;2024-03-02T01:07:26;62.37;;;55.13;;
13849;SDS011;6995;52.618;13.488;2024-03-02T01:09:52;58.70;;;52.30;;
13849;SDS011;6995;52.618;13.488;2024-03-02T01:12:17;62.83;;;56.07;;
13849;SDS011;6995;52.618;13.488;2024-03-02T01:14:43;69.70;;;56.27;;
13849;SDS011;6995;52.618;13.488;2024-03-02T01:17:08;67.27;;;59.23;;
13849;SDS011;6995;52.618;13.488;2024-03-02T01:19:34;64.00;;;57.07;;
13849;SDS011;6995;52.618;13.488;2024-03-02T01:22:00;64.00;;;56.80;;
13849;SDS011;6995;52.618;13.488;2024-03-02T01:24:26;68.13;;;58.10;;
13849;SDS011;6995;52.618;13.488;2024-03-02T01:26:51;62.50;;;55.87;;
13849;SDS011;6995;52.618;13.488;2024-03-02T01:29:17;66.03;;;55.73;;
13849;SDS011;6995;52.618;13.488;2024-03-02T01:31:43;64.37;;;55.93;;
13849;SDS011;6995;52.618;13.488;2024-03-02T01:34:09;66.07;;;59.60;;
13849;SDS011;6995;52.618;13.488;2024-03-02T01:36:34;64.73;;;56.10;;
13849;SDS011;6995;52.618;13.488;2024-03-02T01:39:00;63.07;;;55.43;;
13849;SDS011;6995;52.618;13.488;2024-03-02T01:41:26;69.37;;;59.33;;
13849;SDS011;6995;52.618;13.488;2024-03-02T01:43:52;68.20;;;59.00;;
13849;SDS011;6995;52.618;13.488;2024-03-02T01:46:18;68.67;;;57.53;;
13849;SDS011;6995;52.618;13.488;2024-03-02T01:48:44;70.87;;;54.93;;
13849;SDS011;6995;52.618;13.488;2024-03-02T01:51:09;69.13;;;55.70;;
13849;SDS011;6995;52.618;13.488;2024-03-02T01:53:35;65.43;;;55.00;;
13849;SDS011;6995;52.618;13.488;2024-03-02T01:56:01;66.73;;;58.00;;
13849;SDS011;6995;52.618;13.488;2024-03-02T01:58:27;66.47;;;58.50;;
13849;SDS011;6995;52.618;13.488;2024-03-02T02:00:53;67.83;;;56.20;;
13849;SDS011;6995;52.618;13.488;2024-03-02T02:03:18;67.77;;;58.27;;
13849;SDS011;6995;52.618;13.488;2024-03-02T02:05:44;70.40;;;59.80;;
13849;SDS011;6995;52.618;13.488;2024-03-02T02:08:12;68.53;;;56.83;;
13849;SDS011;6995;52.618;13.488;2024-03-02T02:10:37;71.87;;;57.60;;
13849;SDS011;6995;52.618;13.488;2024-03-02T02:13:03;69.33;;;58.43;;
13849;SDS011;6995;52.618;13.488;2024-03-02T02:15:29;72.00;;;58.30;;
13849;SDS011;6995;52.618;13.488;2024-03-02T02:17:55;74.17;;;58.87;;
13849;SDS011;6995;52.618;13.488;2024-03-02T02:20:22;70.77;;;58.90;;
13849;SDS011;6995;52.618;13.488;2024-03-02T02:23:04;68.27;;;58.60;;
13849;SDS011;6995;52.618;13.488;2024-03-02T02:25:34;71.30;;;58.23;;
13849;SDS011;6995;52.618;13.488;2024-03-02T02:28:00;68.43;;;58.80;;
13849;SDS011;6995;52.618;13.488;2024-03-02T02:30:30;69.60;;;59.87;;
13849;SDS011;6995;52.618;13.488;2024-03-02T02:32:57;67.97;;;58.70;;
13849;SDS011;6995;52.618;13.488;2024-03-02T02:35:23;73.90;;;56.20;;
13849;SDS011;6995;52.618;13.488;2024-03-02T02:37:54;76.90;;;61.27;;
13849;SDS011;6995;52.618;13.488;2024-03-02T02:40:21;78.40;;;61.57;;
13849;SDS011;6995;52.618;13.488;2024-03-02T02:42:47;70.77;;;58.30;;
13849;SDS011;6995;52.618;13.488;2024-03-02T02:45:13;71.50;;;61.33;;
13849;SDS011;6995;52.618;13.488;2024-03-02T02:47:40;77.57;;;62.63;;
13849;SDS011;6995;52.618;13.488;2024-03-02T02:50:09;81.57;;;63.33;;
13849;SDS011;6995;52.618;13.488;2024-03-02T02:52:37;80.40;;;61.77;;
13849;SDS011;6995;52.618;13.488;2024-03-02T02:55:05;79.93;;;61.73;;
13849;SDS011;6995;52.618;13.488;2024-03-02T02:57:32;77.67;;;63.77;;
13849;SDS011;6995;52.618;13.488;2024-03-02T03:00:02;75.10;;;62.27;;
13849;SDS011;6995;52.618;13.488;2024-03-02T03:02:31;81.47;;;62.17;;
13849;SDS011;6995;52.618;13.488;2024-03-02T03:04:56;79.97;;;60.50;;
13849;SDS011;6995;52.618;13.488;2024-03-02T03:07:22;78.67;;;62.87;;
13849;SDS011;6995;52.618;13.488;2024-03-02T03:09:48;84.57;;;62.83;;
13849;SDS011;6995;52.618;13.488;2024-03-02T03:12:13;87.17;;;63.57;;
13849;SDS011;6995;52.618;13.488;2024-03-02T03:14:42;75.43;;;61.13;;
13849;SDS011;6995;52.618;13.488;2024-03-02T03:17:08;81.10;;;61.73;;
13849;SDS011;6995;52.618;13.488;2024-03-02T03:19:33;79.90;;;63.70;;
13849;SDS011;6995;52.618;13.488;2024-03-02T03:21:59;86.67;;;66.77;;
13849;SDS011;6995;52.618;13.488;2024-03-02T03:24:25;84.20;;;64.20;;
13849;SDS011;6995;52.618;13.488;2024-03-02T03:26:50;90.50;;;66.80;;
13849;SDS011;6995;52.618;13.488;2024-03-02T03:29:16;84.90;;;65.80;;
13849;SDS011;6995;52.618;13.488;2024-03-02T03:31:42;84.03;;;63.53;;
13849;SDS011;6995;52.618;13.488;2024-03-02T03:34:07;84.30;;;67.00;;
13849;SDS011;6995;52.618;13.488;2024-03-02T03:36:33;74.70;;;61.80;;
13849;SDS011;6995;52.618;13.488;2024-03-02T03:38:58;89.30;;;65.00;;
13849;SDS011;6995;52.618;13.488;2024-03-02T03:41:27;86.03;;;63.77;;
13849;SDS011;6995;52.618;13.488;2024-03-02T03:43:52;80.00;;;64.03;;
13849;SDS011;6995;52.618;13.488;2024-03-02T03:46:18;85.10;;;66.93;;
13849;SDS011;6995;52.618;13.488;2024-03-02T03:48:43;89.00;;;65.83;;
13849;SDS011;6995;52.618;13.488;2024-03-02T03:51:09;80.67;;;61.30;;
13849;SDS011;6995;52.618;13.488;2024-03-02T03:53:35;82.30;;;62.40;;
13849;SDS011;6995;52.618;13.488;2024-03-02T03:56:00;76.03;;;65.03;;
13849;SDS011;6995;52.618;13.488;2024-03-02T03:58:26;86.60;;;69.93;;
13849;SDS011;6995;52.618;13.488;2024-03-02T04:00:51;78.20;;;66.10;;
13849;SDS011;6995;52.618;13.488;2024-03-02T04:03:17;82.10;;;64.30;;
13849;SDS011;6995;52.618;13.488;2024-03-02T04:05:43;83.27;;;65.07;;
13849;SDS011;6995;52.618;13.488;2024-03-02T04:08:08;84.90;;;64.07;;
13849;SDS011;6995;52.618;13.488;2024-03-02T04:10:34;85.97;;;66.57;;
13849;SDS011;6995;52.618;13.488;2024-03-02T04:13:00;89.07;;;69.67;;
13849;SDS011;6995;52.618;13.488;2024-03-02T04:15:25;85.27;;;67.23;;
13849;SDS011;6995;52.618;13.488;2024-03-02T04:17:51;75.87;;;64.97;;
13849;SDS011;6995;52.618;13.488;2024-03-02T04:20:17;81.80;;;66.37;;
13849;SDS011;6995;52.618;13.488;2024-03-02T04:22:42;80.47;;;65.40;;
13849;SDS011;6995;52.618;13.488;2024-03-02T04:25:08;81.53;;;66.37;;
13849;SDS011;6995;52.618;13.488;2024-03-02T04:27:34;76.70;;;64.63;;
13849;SDS011;6995;52.618;13.488;2024-03-02T04:30:00;81.60;;;65.47;;
13849;SDS011;6995;52.618;13.488;2024-03-02T04:32:26;78.00;;;69.40;;
13849;SDS011;6995;52.618;13.488;2024-03-02T04:34:52;81.33;;;64.77;;
13849;SDS011;6995;52.618;13.488;2024-03-02T04:37:18;80.13;;;65.23;;
13849;SDS011;6995;52.618;13.488;2024-03-02T04:39:44;82.07;;;68.37;;
13849;SDS011;6995;52.618;13.488;2024-03-02T04:42:09;82.37;;;63.87;;
13849;SDS011;6995;52.618;13.488;2024-03-02T04:44:35;79.83;;;66.27;;
13849;SDS011;6995;52.618;13.488;2024-03-02T04:47:01;75.97;;;64.07;;
13849;SDS011;6995;52.618;13.488;2024-03-02T04:49:28;77.47;;;61.93;;
13849;SDS011;6995;52.618;13.488;2024-03-02T04:51:53;73.83;;;62.47;;
13849;SDS011;6995;52.618;13.488;2024-03-02T04:54:19;72.43;;;61.80;;
13849;SDS011;6995;52.618;13.488;2024-03-02T04:56:45;74.90;;;63.00;;
13849;SDS011;6995;52.618;13.488;2024-03-02T04:59:15;76.27;;;65.57;;
13849;SDS011;6995;52.618;13.488;2024-03-02T05:01:41;71.40;;;61.80;;
13849;SDS011;6995;52.618;13.488;2024-03-02T05:04:07;77.17;;;60.50;;
13849;SDS011;6995;52.618;13.488;2024-03-02T05:06:35;77.67;;;63.07;;
13849;SDS011;6995;52.618;13.488;2024-03-02T05:09:01;79.47;;;64.07;;
13849;SDS011;6995;52.618;13.488;2024-03-02T05:11:26;78.23;;;64.27;;
13849;SDS011;6995;52.618;13.488;2024-03-02T05:14:05;80.03;;;65.67;;
13849;SDS011;6995;52.618;13.488;2024-03-02T05:16:34;81.27;;;61.10;;
13849;SDS011;6995;52.618;13.488;2024-03-02T05:19:00;69.73;;;60.43;;
13849;SDS011;6995;52.618;13.488;2024-03-02T05:21:26;73.60;;;61.10;;
13849;SDS011;6995;52.618;13.488;2024-03-02T05:23:51;72.93;;;57.93;;
13849;SDS011;6995;52.618;13.488;2024-03-02T05:26:17;70.47;;;60.77;;
13849;SDS011;6995;52.618;13.488;2024-03-02T05:28:43;71.67;;;59.43;;
13849;SDS011;6995;52.618;13.488;2024-03-02T05:31:11;71.07;;;59.00;;
13849;SDS011;6995;52.618;13.488;2024-03-02T05:33:40;70.57;;;57.90;;
13849;SDS011;6995;52.618;13.488;2024-03-02T05:36:06;70.50;;;59.10;;
13849;SDS011;6995;52.618;13.488;2024-03-02T05:38:32;67.47;;;59.53;;
13849;SDS011;6995;52.618;13.488;2024-03-02T05:41:00;71.27;;;58.63;;
13849;SDS011;6995;52.618;13.488;2024-03-02T05:43:26;66.50;;;59.17;;
13849;SDS011;6995;52.618;13.488;2024-03-02T05:45:51;68.00;;;57.30;;
13849;SDS011;6995;52.618;13.488;2024-03-02T05:48:17;68.17;;;55.23;;
13849;SDS011;6995;52.618;13.488;2024-03-02T05:50:43;71.40;;;57.80;;
13849;SDS011;6995;52.618;13.488;2024-03-02T05:53:08;70.33;;;55.90;;
13849;SDS011;6995;52.618;13.488;2024-03-02T05:55:34;65.90;;;57.47;;
13849;SDS011;6995;52.618;13.488;2024-03-02T05:57:59;65.50;;;55.37;;
13849;SDS011;6995;52.618;13.488;2024-03-02T06:00:47;71.40;;;56.23;;
13849;SDS011;6995;52.618;13.488;2024-03-02T06:03:13;69.57;;;59.50;;
13849;SDS011;6995;52.618;13.488;2024-03-02T06:05:38;72.77;;;58.90;;
13849;SDS011;6995;52.618;13.488;2024-03-02T06:08:05;67.80;;;59.27;;
13849;SDS011;6995;52.618;13.488;2024-03-02T06:10:32;71.97;;;58.10;;
13849;SDS011;6995;52.618;13.488;2024-03-02T06:12:57;76.83;;;60.00;;
13849;SDS011;6995;52.618;13.488;2024-03-02T06:15:24;74.20;;;59.03;;
13849;SDS011;6995;52.618;13.488;2024-03-02T06:17:50;75.20;;;62.17;;
13849;SDS011;6995;52.618;13.488;2024-03-02T06:20:17;83.87;;;64.70;;
13849;SDS011;6995;52.618;13.488;2024-03-02T06:22:42;78.60;;;58.50;;
13849;SDS011;6995;52.618;13.488;2024-03-02T06:25:08;75.20;;;66.47;;
13849;SDS011;6995;52.618;13.488;2024-03-02T06:27:33;78.10;;;60.60;;
13849;SDS011;6995;52.618;13.488;2024-03-02T06:29:59;85.60;;;61.53;;
13849;SDS011;6995;52.618;13.488;2024-03-02T06:32:25;84.70;;;60.37;;
13849;SDS011;6995;52.618;13.488;2024-03-02T06:34:50;80.57;;;62.30;;
13849;SDS011;6995;52.618;13.488;2024-03-02T06:37:16;79.97;;;62.67;;
13849;SDS011;6995;52.618;13.488;2024-03-02T06:39:43;76.73;;;60.23;;
13849;SDS011;6995;52.618;13.488;2024-03-02T06:42:09;79.87;;;64.27;;
13849;SDS011;6995;52.618;13.488;2024-03-02T06:44:34;80.80;;;60.23;;
13849;SDS011;6995;52.618;13.488;2024-03-02T06:47:01;82.97;;;60.80;;
13849;SDS011;6995;52.618;13.488;2024-03-02T06:49:26;74.50;;;61.27;;
13849;SDS011;6995;52.618;13.488;2024-03-02T06:51:52;74.80;;;60.47;;
13849;SDS011;6995;52.618;13.488;2024-03-02T06:54:18;76.10;;;61.47;;
13849;SDS011;6995;52.618;13.488;2024-03-02T06:56:43;75.63;;;60.23;;
13849;SDS011;6995;52.618;13.488;2024-03-02T06:59:09;76.33;;;64.60;;
13849;SDS011;6995;52.618;13.488;2024-03-02T07:01:35;76.00;;;62.10;;
13849;SDS011;6995;52.618;13.488;2024-03-02T07:04:01;81.77;;;62.20;;
13849;SDS011;6995;52.618;13.488;2024-03-02T07:06:28;77.00;;;58.47;;
13849;SDS011;6995;52.618;13.488;2024-03-02T07:08:53;78.40;;;59.00;;
13849;SDS011;6995;52.618;13.488;2024-03-02T07:11:19;80.13;;;59.43;;
13849;SDS011;6995;52.618;13.488;2024-03-02T07:13:44;77.77;;;58.80;;
13849;SDS011;6995;52.618;13.488;2024-03-02T07:16:10;78.33;;;61.30;;
13849;SDS011;6995;52.618;13.488;2024-03-02T07:18:36;78.00;;;60.33;;
13849;SDS011;6995;52.618;13.488;2024-03-02T07:21:07;79.03;;;63.33;;
13849;SDS011;6995;52.618;13.488;2024-03-02T07:23:32;78.20;;;63.20;;
13849;SDS011;6995;52.618;13.488;2024-03-02T07:25:59;81.37;;;63.43;;
13849;SDS011;6995;52.618;13.488;2024-03-02T07:28:26;77.43;;;61.90;;
13849;SDS011;6995;52.618;13.488;2024-03-02T07:31:02;77.50;;;61.50;;
13849;SDS011;6995;52.618;13.488;2024-03-02T07:33:29;74.13;;;60.03;;
13849;SDS011;6995;52.618;13.488;2024-03-02T07:35:56;81.27;;;63.87;;
13849;SDS011;6995;52.618;13.488;2024-03-02T07:38:22;76.87;;;62.97;;
13849;SDS011;6995;52.618;13.488;2024-03-02T07:40:48;66.30;;;59.03;;
13849;SDS011;6995;52.618;13.488;2024-03-02T07:43:18;78.67;;;60.47;;
13849;SDS011;6995;52.618;13.488;2024-03-02T07:45:44;72.80;;;58.03;;
13849;SDS011;6995;52.618;13.488;2024-03-02T07:48:10;72.33;;;59.00;;
13849;SDS011;6995;52.618;13.488;2024-03-02T07:50:36;78.80;;;59.53;;
13849;SDS011;6995;52.618;13.488;2024-03-02T07:53:03;81.97;;;60.43;;
13849;SDS011;6995;52.618;13.488;2024-03-02T07:55:35;77.03;;;62.57;;
13849;SDS011;6995;52.618;13.488;2024-03-02T07:58:01;80.83;;;61.90;;
13849;SDS011;6995;52.618;13.488;2024-03-02T08:00:27;75.00;;;60.43;;
13849;SDS011;6995;52.618;13.488;2024-03-02T08:02:53;79.30;;;61.37;;
13849;SDS011;6995;52.618;13.488;2024-03-02T08:05:19;71.47;;;62.03;;
13849;SDS011;6995;52.618;13.488;2024-03-02T08:07:45;69.97;;;60.27;;
13849;SDS011;6995;52.618;13.488;2024-03-02T08:10:11;75.80;;;63.17;;
13849;SDS011;6995;52.618;13.488;2024-03-02T08:12:37;74.40;;;59.83;;
13849;SDS011;6995;52.618;13.488;2024-03-02T08:15:03;72.60;;;60.93;;
13849;SDS011;6995;52.618;13.488;2024-03-02T08:17:30;73.20;;;60.20;;
13849;SDS011;6995;52.618;13.488;2024-03-02T08:19:56;76.23;;;64.00;;
13849;SDS011;6995;52.618;13.488;2024-03-02T08:22:22;71.23;;;59.00;;
13849;SDS011;6995;52.618;13.488;2024-03-02T08:24:50;79.50;;;60.10;;
13849;SDS011;6995;52.618;13.488;2024-03-02T08:27:16;76.37;;;60.30;;
13849;SDS011;6995;52.618;13.488;2024-03-02T08:29:42;75.00;;;62.07;;
13849;SDS011;6995;52.618;13.488;2024-03-02T08:32:07;70.07;;;57.20;;
13849;SDS011;6995;52.618;13.488;2024-03-02T08:34:33;79.90;;;59.67;;
13849;SDS011;6995;52.618;13.488;2024-03-02T08:37:00;71.97;;;59.13;;
13849;SDS011;6995;52.618;13.488;2024-03-02T08:39:26;73.33;;;61.97;;
13849;SDS011;6995;52.618;13.488;2024-03-02T08:41:52;70.67;;;59.97;;
13849;SDS011;6995;52.618;13.488;2024-03-02T08:44:18;67.77;;;59.93;;
13849;SDS011;6995;52.618;13.488;2024-03-02T08:46:45;64.37;;;54.40;;
13849;SDS011;6995;52.618;13.488;2024-03-02T08:49:10;69.90;;;60.40;;
13849;SDS011;6995;52.618;13.488;2024-03-02T08:51:36;72.37;;;59.20;;
13849;SDS011;6995;52.618;13.488;2024-03-02T08:54:02;71.20;;;60.57;;
13849;SDS011;6995;52.618;13.488;2024-03-02T08:56:29;67.93;;;56.70;;
13849;SDS011;6995;52.618;13.488;2024-03-02T08:58:55;67.30;;;57.97;;
13849;SDS011;6995;52.618;13.488;2024-03-02T09:01:21;69.17;;;57.97;;
13849;SDS011;6995;52.618;13.488;2024-03-02T09:03:47;67.27;;;58.87;;
13849;SDS011;6995;52.618;13.488;2024-03-02T09:06:14;68.50;;;61.03;;
13849;SDS011;6995;52.618;13.488;2024-03-02T09:08:42;64.20;;;55.53;;
13849;SDS011;6995;52.618;13.488;2024-03-02T09:11:08;64.47;;;57.57;;
13849;SDS011;6995;52.618;13.488;2024-03-02T09:13:35;62.53;;;55.83;;
13849;SDS011;6995;52.618;13.488;2024-03-02T09:16:02;63.30;;;56.13;;
13849;SDS011;6995;52.618;13.488;2024-03-02T09:18:29;62.97;;;55.57;;
13849;SDS011;6995;52.618;13.488;2024-03-02T09:20:54;65.00;;;57.07;;
13849;SDS011;6995;52.618;13.488;2024-03-02T09:23:20;64.20;;;57.43;;
13849;SDS011;6995;52.618;13.488;2024-03-02T09:25:46;64.63;;;57.70;;
13849;SDS011;6995;52.618;13.488;2024-03-02T09:28:12;65.47;;;58.37;;
13849;SDS011;6995;52.618;13.488;2024-03-02T09:30:37;65.37;;;57.57;;
13849;SDS011;6995;52.618;13.488;2024-03-02T09:33:03;64.20;;;57.20;;
13849;SDS011;6995;52.618;13.488;2024-03-02T09:35:29;61.93;;;54.40;;
13849;SDS011;6995;52.618;13.488;2024-03-02T09:37:55;63.90;;;57.33;;
13849;SDS011;6995;52.618;13.488;2024-03-02T09:40:24;66.80;;;56.53;;
13849;SDS011;6995;52.618;13.488;2024-03-02T09:42:50;61.47;;;53.80;;
13849;SDS011;6995;52.618;13.488;2024-03-02T09:45:21;64.23;;;57.53;;
13849;SDS011;6995;52.618;13.488;2024-03-02T09:47:48;62.97;;;56.43;;
13849;SDS011;6995;52.618;13.488;2024-03-02T09:50:14;65.17;;;58.27;;
13849;SDS011;6995;52.618;13.488;2024-03-02T09:52:40;61.70;;;55.40;;
13849;SDS011;6995;52.618;13.488;2024-03-02T09:55:07;63.03;;;56.20;;
13849;SDS011;6995;52.618;13.488;2024-03-02T09:57:33;63.47;;;56.63;;
13849;SDS011;6995;52.618;13.488;2024-03-02T09:59:59;60.87;;;54.60;;
13849;SDS011;6995;52.618;13.488;2024-03-02T10:02:25;61.37;;;54.63;;
13849;SDS011;6995;52.618;13.488;2024-03-02T10:04:51;62.33;;;56.07;;
13849;SDS011;6995;52.618;13.488;2024-03-02T10:07:17;60.17;;;54.03;;
13849;SDS011;6995;52.618;13.488;2024-03-02T10:09:44;55.43;;;50.00;;
13849;SDS011;6995;52.618;13.488;2024-03-02T10:12:12;57.67;;;51.63;;
13849;SDS011;6995;52.618;13.488;2024-03-02T10:14:39;56.33;;;50.97;;
13849;SDS011;6995;52.618;13.488;2024-03-02T10:17:06;54.47;;;48.93;;
13849;SDS011;6995;52.618;13.488;2024-03-02T10:19:33;54.63;;;48.87;;
13849;SDS011;6995;52.618;13.488;2024-03-02T10:22:03;57.67;;;51.90;;
13849;SDS011;6995;52.618;13.488;2024-03-02T10:24:40;57.83;;;52.00;;
13849;SDS011;6995;52.618;13.488;2024-03-02T10:27:10;56.03;;;50.40;;
13849;SDS011;6995;52.618;13.488;2024-03-02T10:29:56;53.88;;;48.95;;
13849;SDS011;6995;52.618;13.488;2024-03-02T10:32:22;60.10;;;54.60;;
13849;SDS011;6995;52.618;13.488;2024-03-02T10:34:48;57.38;;;51.97;;
13849;SDS011;6995;52.618;13.488;2024-03-02T10:37:15;54.40;;;49.25;;
13849;SDS011;6995;52.618;13.488;2024-03-02T10:39:42;53.22;;;48.38;;
13849;SDS011;6995;52.618;13.488;2024-03-02T10:42:08;55.15;;;50.05;;
13849;SDS011;6995;52.618;13.488;2024-03-02T10:44:34;51.65;;;46.65;;
13849;SDS011;6995;52.618;13.488;2024-03-02T10:47:00;51.47;;;46.60;;
13849;SDS011;6995;52.618;13.488;2024-03-02T10:49:29;53.05;;;47.95;;
13849;SDS011;6995;52.618;13.488;2024-03-02T10:51:55;52.50;;;47.50;;
13849;SDS011;6995;52.618;13.488;2024-03-02T10:54:21;49.92;;;44.63;;
13849;SDS011;6995;52.618;13.488;2024-03-02T10:56:51;47.28;;;42.47;;
13849;SDS011;6995;52.618;13.488;2024-03-02T11:01:53;49.13;;;44.28;;
13849;SDS011;6995;52.618;13.488;2024-03-02T11:04:25;49.33;;;44.72;;
13849;SDS011;6995;52.618;13.488;2024-03-02T11:06:52;45.08;;;41.05;;
13849;SDS011;6995;52.618;13.488;2024-03-02T11:09:22;44.40;;;40.40;;
13849;SDS011;6995;52.618;13.488;2024-03-02T11:12:13;43.65;;;39.63;;
13849;SDS011;6995;52.618;13.488;2024-03-02T11:14:41;41.72;;;38.10;;
13849;SDS011;6995;52.618;13.488;2024-03-02T11:17:08;41.15;;;37.65;;
13849;SDS011;6995;52.618;13.488;2024-03-02T11:19:35;42.30;;;38.53;;
13849;SDS011;6995;52.618;13.488;2024-03-02T11:22:03;39.70;;;36.40;;
13849;SDS011;6995;52.618;13.488;2024-03-02T11:24:30;41.30;;;37.90;;
13849;SDS011;6995;52.618;13.488;2024-03-02T11:26:58;40.60;;;37.42;;
13849;SDS011;6995;52.618;13.488;2024-03-02T11:32:05;43.78;;;40.20;;
13849;SDS011;6995;52.618;13.488;2024-03-02T11:34:38;39.95;;;36.55;;
13849;SDS011;6995;52.618;13.488;2024-03-02T11:37:15;45.40;;;41.13;;
13849;SDS011;6995;52.618;13.488;2024-03-02T11:39:43;43.55;;;39.85;;
13849;SDS011;6995;52.618;13.488;2024-03-02T11:42:10;44.30;;;40.10;;
13849;SDS011;6995;52.618;13.488;2024-03-02T11:44:39;44.17;;;40.40;;
13849;SDS011;6995;52.618;13.488;2024-03-02T11:47:07;40.95;;;37.30;;
13849;SDS011;6995;52.618;13.488;2024-03-02T11:49:39;40.30;;;36.80;;
13849;SDS011;6995;52.618;13.488;2024-03-02T11:52:14;43.38;;;39.65;;
13849;SDS011;6995;52.618;13.488;2024-03-02T11:54:42;43.95;;;40.15;;
13849;SDS011;6995;52.618;13.488;2024-03-02T11:57:12;42.63;;;38.88;;
13849;SDS011;6995;52.618;13.488;2024-03-02T11:59:41;45.92;;;42.33;;
13849;SDS011;6995;52.618;13.488;2024-03-02T12:02:12;42.63;;;38.88;;
13849;SDS011;6995;52.618;13.488;2024-03-02T12:04:41;40.13;;;36.95;;
13849;SDS011;6995;52.618;13.488;2024-03-02T12:07:08;44.35;;;40.72;;
13849;SDS011;6995;52.618;13.488;2024-03-02T12:09:34;46.25;;;42.50;;
13849;SDS011;6995;52.618;13.488;2024-03-02T12:12:07;40.33;;;37.03;;
13849;SDS011;6995;52.618;13.488;2024-03-02T12:14:34;40.83;;;37.40;;
13849;SDS011;6995;52.618;13.488;2024-03-02T12:17:01;42.85;;;39.30;;
13849;SDS011;6995;52.618;13.488;2024-03-02T12:19:28;46.67;;;42.78;;
13849;SDS011;6995;52.618;13.488;2024-03-02T12:21:57;41.95;;;38.47;;
13849;SDS011;6995;52.618;13.488;2024-03-02T12:24:24;43.92;;;40.50;;
13849;SDS011;6995;52.618;13.488;2024-03-02T12:26:51;46.42;;;42.85;;
13849;SDS011;6995;52.618;13.488;2024-03-02T12:29:19;46.55;;;42.72;;
13849;SDS011;6995;52.618;13.488;2024-03-02T12:31:47;44.67;;;41.08;;
13849;SDS011;6995;52.618;13.488;2024-03-02T12:34:20;42.97;;;39.65;;
13849;SDS011;6995;52.618;13.488;2024-03-02T12:36:47;44.25;;;40.65;;
13849;SDS011;6995;52.618;13.488;2024-03-02T12:39:17;44.60;;;41.15;;
13849;SDS011;6995;52.618;13.488;2024-03-02T12:41:50;42.53;;;39.22;;
13849;SDS011;6995;52.618;13.488;2024-03-02T12:44:19;39.63;;;36.28;;
13849;SDS011;6995;52.618;13.488;2024-03-02T12:46:45;38.17;;;35.28;;
13849;SDS011;6995;52.618;13.488;2024-03-02T12:49:12;38.92;;;35.70;;
13849;SDS011;6995;52.618;13.488;2024-03-02T12:51:41;41.88;;;38.13;;
13849;SDS011;6995;52.618;13.488;2024-03-02T12:54:08;38.70;;;35.75;;
13849;SDS011;6995;52.618;13.488;2024-03-02T12:56:36;41.25;;;38.00;;
13849;SDS011;6995;52.618;13.488;2024-03-02T12:59:03;89.28;;;43.60;;
13849;SDS011;6995;52.618;13.488;2024-03-02T13:01:30;111.97;;;46.38;;
13849;SDS011;6995;52.618;13.488;2024-03-02T13:03:57;38.85;;;34.88;;
13849;SDS011;6995;52.618;13.488;2024-03-02T13:06:23;38.88;;;35.45;;
13849;SDS011;6995;52.618;13.488;2024-03-02T13:08:52;70.30;;;38.28;;
13849;SDS011;6995;52.618;13.488;2024-03-02T13:11:18;64.10;;;39.50;;
13849;SDS011;6995;52.618;13.488;2024-03-02T13:13:45;79.85;;;39.50;;
13849;SDS011;6995;52.618;13.488;2024-03-02T13:16:12;308.85;;;60.13;;
13849;SDS011;6995;52.618;13.488;2024-03-02T13:18:41;36.33;;;33.35;;
13849;SDS011;6995;52.618;13.488;2024-03-02T13:21:07;37.28;;;34.22;;
13849;SDS011;6995;52.618;13.488;2024-03-02T13:23:33;37.88;;;34.92;;
13849;SDS011;6995;52.618;13.488;2024-03-02T13:25:59;38.42;;;35.42;;
13849;SDS011;6995;52.618;13.488;2024-03-02T13:28:25;36.10;;;32.92;;
13849;SDS011;6995;52.618;13.488;2024-03-02T13:30:51;36.63;;;33.83;;
13849;SDS011;6995;52.618;13.488;2024-03-02T13:33:17;37.08;;;34.20;;
13849;SDS011;6995;52.618;13.488;2024-03-02T13:35:50;38.53;;;35.45;;
13849;SDS011;6995;52.618;13.488;2024-03-02T13:38:17;36.28;;;33.65;;
13849;SDS011;6995;52.618;13.488;2024-03-02T13:40:46;33.65;;;31.15;;
13849;SDS011;6995;52.618;13.488;2024-03-02T13:43:17;33.17;;;30.80;;
13849;SDS011;6995;52.618;13.488;2024-03-02T13:45:47;34.78;;;32.20;;
13849;SDS011;6995;52.618;13.488;2024-03-02T13:48:13;33.45;;;30.92;;
13849;SDS011;6995;52.618;13.488;2024-03-02T13:50:39;32.90;;;30.40;;
13849;SDS011;6995;52.618;13.488;2024-03-02T13:53:05;31.20;;;28.90;;
13849;SDS011;6995;52.618;13.488;2024-03-02T13:55:32;34.13;;;31.52;;
13849;SDS011;6995;52.618;13.488;2024-03-02T13:57:58;33.08;;;30.70;;
13849;SDS011;6995;52.618;13.488;2024-03-02T14:00:24;31.30;;;28.90;;
13849;SDS011;6995;52.618;13.488;2024-03-02T14:02:50;31.35;;;29.25;;
13849;SDS011;6995;52.618;13.488;2024-03-02T14:05:16;32.20;;;29.98;;
13849;SDS011;6995;52.618;13.488;2024-03-02T14:07:42;34.22;;;31.55;;
13849;SDS011;6995;52.618;13.488;2024-03-02T14:10:09;31.55;;;29.35;;
13849;SDS011;6995;52.618;13.488;2024-03-02T14:12:35;35.10;;;32.58;;
13849;SDS011;6995;52.618;13.488;2024-03-02T14:15:02;34.22;;;31.83;;
13849;SDS011;6995;52.618;13.488;2024-03-02T14:17:30;33.47;;;31.08;;
13849;SDS011;6995;52.618;13.488;2024-03-02T14:19:58;33.15;;;30.83;;
13849;SDS011;6995;52.618;13.488;2024-03-02T14:22:24;32.78;;;30.08;;
13849;SDS011;6995;52.618;13.488;2024-03-02T14:24:50;33.17;;;30.88;;
13849;SDS011;6995;52.618;13.488;2024-03-02T14:27:16;34.50;;;32.03;;
13849;SDS011;6995;52.618;13.488;2024-03-02T14:29:42;35.00;;;32.53;;